Leon, Oklahoma
Current Conditions -  °F | °C
As of 7:15 AM on Friday 31 Oct 2014 (Local Time) from KGLE Reporting Station
Clear Clear  
Wind Chill: 50°   Ceiling: Unl
Heat Index: 50°   Visibility: 10mi
Dew Point: 40°   Wind: 14mph
Humidity: 67%   Direction: 340°NNW
Pressure: 30.3"   Gusts: NA
Location:  33.88°N, 97.43°W
Report Text: KGLE 311215Z AUTO 34012KT 10SM CLR 10/04 A3030 RMK AO2 T01000042
Loading
Personal Weather Stations






























Interactive Weather Map
Tropical Storm Tracking
New forecast layout! Learn more

10-Day Weather Forecast

Advertisements
Track Severe Weather on mobile